createdAt,value
2022-07-29T00:02:26.295Z,20.80
2022-07-29T00:04:52.982Z,20.60
2022-07-29T00:07:19.613Z,20.60
2022-07-29T00:09:51.965Z,20.80
2022-07-29T00:12:25.781Z,20.70
2022-07-29T00:14:56.749Z,20.60
2022-07-29T00:17:24.177Z,20.50
2022-07-29T00:19:50.937Z,20.40
2022-07-29T00:22:17.489Z,20.80
2022-07-29T00:24:44.013Z,20.60
2022-07-29T00:27:10.489Z,20.70
2022-07-29T00:29:36.979Z,20.20
2022-07-29T00:32:03.842Z,20.30
2022-07-29T00:34:49.466Z,20.10
2022-07-29T00:37:16.220Z,20.20
2022-07-29T00:39:42.872Z,20.50
2022-07-29T00:42:10.547Z,20.20
2022-07-29T00:44:38.801Z,20.20
2022-07-29T00:47:05.676Z,20.50
2022-07-29T00:49:32.667Z,20.50
2022-07-29T00:51:59.276Z,20.50
2022-07-29T00:54:27.795Z,20.50
2022-07-29T00:56:54.351Z,20.40
2022-07-29T00:59:20.903Z,20.30
2022-07-29T01:01:47.449Z,20.40
2022-07-29T01:04:14.332Z,20.20
2022-07-29T01:06:42.516Z,20.00
2022-07-29T01:09:10.081Z,20.10
2022-07-29T01:11:37.042Z,20.30
2022-07-29T01:14:06.147Z,20.40
2022-07-29T01:16:37.370Z,19.90
2022-07-29T01:19:31.992Z,20.10
2022-07-29T01:22:00.484Z,20.00
2022-07-29T01:24:59.437Z,19.60
2022-07-29T01:28:00.260Z,19.60
2022-07-29T01:30:31.585Z,19.80
2022-07-29T01:33:01.429Z,19.80
2022-07-29T01:35:34.831Z,19.40
2022-07-29T01:38:12.300Z,19.60
2022-07-29T01:40:46.937Z,19.20
2022-07-29T01:43:39.935Z,19.30
2022-07-29T01:46:10.546Z,19.50
2022-07-29T01:48:37.066Z,19.30
2022-07-29T01:51:07.785Z,19.30
2022-07-29T01:53:45.169Z,19.30
2022-07-29T01:56:13.366Z,19.40
2022-07-29T01:58:41.345Z,19.50
2022-07-29T02:01:10.146Z,19.60
2022-07-29T02:03:38.706Z,19.80
2022-07-29T02:06:06.558Z,19.80
2022-07-29T02:08:33.791Z,19.70
2022-07-29T02:11:01.718Z,19.30
2022-07-29T02:13:29.355Z,19.50
2022-07-29T02:15:56.981Z,19.70
2022-07-29T02:18:25.046Z,19.60
2022-07-29T02:20:54.079Z,19.60
2022-07-29T02:23:21.682Z,19.50
2022-07-29T02:25:50.509Z,19.50
2022-07-29T02:28:18.309Z,19.70
2022-07-29T02:30:45.407Z,19.70
2022-07-29T02:33:14.511Z,19.70
2022-07-29T02:35:41.299Z,19.80
2022-07-29T02:38:27.881Z,19.30
2022-07-29T02:40:54.717Z,19.50
2022-07-29T02:43:21.983Z,19.20
2022-07-29T02:45:52.787Z,19.50
2022-07-29T02:48:21.001Z,19.00
2022-07-29T02:50:53.198Z,18.80
2022-07-29T02:53:22.503Z,18.80
2022-07-29T02:55:57.043Z,18.50
2022-07-29T02:58:30.706Z,18.40
2022-07-29T03:01:09.817Z,18.80
2022-07-29T03:03:38.613Z,18.50
2022-07-29T03:06:05.892Z,18.40
2022-07-29T03:08:33.311Z,18.80
2022-07-29T03:11:00.222Z,18.80
2022-07-29T03:13:27.046Z,18.30
2022-07-29T03:15:54.321Z,18.40
2022-07-29T03:18:21.033Z,18.40
2022-07-29T03:20:47.601Z,18.50
2022-07-29T03:23:20.123Z,18.50
2022-07-29T03:25:46.903Z,18.50
2022-07-29T03:28:13.616Z,18.40
2022-07-29T03:30:42.995Z,18.10
2022-07-29T03:33:13.210Z,18.00
2022-07-29T03:35:40.453Z,18.30
2022-07-29T03:38:07.037Z,18.90
2022-07-29T03:40:59.852Z,18.90
2022-07-29T03:43:29.151Z,18.90
2022-07-29T03:45:56.162Z,18.70
2022-07-29T03:48:25.360Z,18.70
2022-07-29T03:50:52.609Z,18.70
2022-07-29T03:53:19.313Z,18.50
2022-07-29T03:55:48.195Z,18.40
2022-07-29T03:58:15.537Z,18.60
2022-07-29T04:00:43.273Z,18.80
2022-07-29T04:03:10.683Z,19.00
2022-07-29T04:05:38.295Z,19.30
2022-07-29T04:08:05.019Z,19.30
2022-07-29T04:10:32.273Z,19.10
2022-07-29T04:13:01.013Z,19.30
2022-07-29T04:15:30.892Z,19.20
2022-07-29T04:17:58.486Z,19.20
2022-07-29T04:20:24.964Z,19.10
2022-07-29T04:22:51.495Z,19.20
2022-07-29T04:25:18.243Z,19.30
2022-07-29T04:28:01.091Z,19.40
2022-07-29T04:30:28.224Z,19.60
2022-07-29T04:32:54.844Z,19.50
2022-07-29T04:35:21.787Z,19.50
2022-07-29T04:37:48.531Z,19.20
2022-07-29T04:40:15.134Z,19.00
2022-07-29T04:42:46.899Z,18.40
2022-07-29T04:45:15.048Z,18.30
2022-07-29T04:47:42.732Z,18.60
2022-07-29T04:50:10.322Z,19.00
2022-07-29T04:52:36.958Z,19.10
2022-07-29T04:55:05.070Z,19.30
2022-07-29T04:57:31.762Z,19.50
2022-07-29T04:59:58.273Z,19.00
2022-07-29T05:02:24.888Z,19.10
2022-07-29T05:04:51.456Z,19.30
2022-07-29T05:07:17.954Z,19.40
2022-07-29T05:09:44.509Z,19.30
2022-07-29T05:12:11.371Z,19.60
2022-07-29T05:14:37.978Z,19.60
2022-07-29T05:17:04.578Z,19.80
2022-07-29T05:19:31.089Z,19.70
2022-07-29T05:21:57.648Z,19.50
2022-07-29T05:24:24.147Z,19.60
2022-07-29T05:26:50.629Z,19.90
2022-07-29T05:29:44.892Z,19.70
2022-07-29T05:32:04.726Z,19.70
2022-07-29T05:34:31.957Z,19.90
2022-07-29T05:36:58.661Z,20.00
2022-07-29T05:39:48.413Z,19.80
2022-07-29T05:42:11.842Z,19.90
2022-07-29T05:44:39.316Z,20.00
2022-07-29T05:47:06.163Z,19.90
2022-07-29T05:49:33.115Z,19.80
2022-07-29T05:52:00.064Z,20.20
2022-07-29T05:54:26.724Z,20.00
2022-07-29T05:56:53.251Z,19.90
2022-07-29T05:59:19.779Z,19.60
2022-07-29T06:01:46.365Z,19.80
2022-07-29T06:04:13.433Z,20.00
2022-07-29T06:06:40.370Z,20.00
2022-07-29T06:09:12.217Z,20.00
2022-07-29T06:11:39.571Z,19.90
2022-07-29T06:14:06.099Z,20.00
2022-07-29T06:16:32.736Z,20.10
2022-07-29T06:18:59.322Z,20.10
2022-07-29T06:21:25.884Z,20.00
2022-07-29T06:23:52.505Z,20.10
2022-07-29T06:26:19.028Z,20.10
2022-07-29T06:28:57.498Z,20.30
2022-07-29T06:31:26.825Z,20.30
2022-07-29T06:33:54.603Z,20.40
2022-07-29T06:36:21.655Z,20.60
2022-07-29T06:38:51.442Z,20.30
2022-07-29T06:41:18.903Z,20.50
2022-07-29T06:43:52.611Z,20.80
2022-07-29T06:46:22.354Z,21.00
2022-07-29T06:48:49.571Z,21.20
2022-07-29T06:51:17.322Z,21.30
2022-07-29T06:53:58.375Z,21.20
2022-07-29T06:56:39.177Z,21.40
2022-07-29T06:59:06.711Z,21.30
2022-07-29T07:01:33.255Z,21.30
2022-07-29T07:03:59.882Z,21.30
2022-07-29T07:06:26.462Z,21.40
2022-07-29T07:08:53.025Z,21.40
2022-07-29T07:11:19.536Z,21.10
2022-07-29T07:13:46.183Z,21.30
2022-07-29T07:16:12.815Z,21.30
2022-07-29T07:18:40.502Z,21.60
2022-07-29T07:21:07.225Z,22.00
2022-07-29T07:23:33.801Z,22.00
2022-07-29T07:26:00.325Z,22.00
2022-07-29T07:28:26.804Z,21.60
2022-07-29T07:30:53.423Z,21.80
2022-07-29T07:33:20.443Z,21.90
2022-07-29T07:35:47.659Z,22.10
2022-07-29T07:38:14.263Z,22.40
2022-07-29T07:40:41.679Z,22.50
2022-07-29T07:43:08.226Z,22.70
2022-07-29T07:45:35.006Z,23.10
2022-07-29T07:48:01.602Z,22.90
2022-07-29T07:50:28.245Z,22.90
2022-07-29T07:52:58.627Z,23.40
2022-07-29T07:55:26.541Z,23.40
2022-07-29T07:57:53.275Z,23.80
2022-07-29T08:00:20.033Z,23.70
2022-07-29T08:02:53.076Z,23.80
2022-07-29T08:05:19.646Z,23.90
2022-07-29T08:07:47.630Z,24.30
2022-07-29T08:10:37.037Z,24.90
2022-07-29T08:13:07.689Z,25.20
2022-07-29T08:15:34.390Z,25.40
2022-07-29T08:18:05.268Z,25.50
2022-07-29T08:20:36.400Z,25.60
2022-07-29T08:23:03.848Z,25.90
2022-07-29T08:25:30.574Z,26.00
2022-07-29T08:27:57.448Z,25.80
2022-07-29T08:30:24.026Z,26.10
2022-07-29T08:32:55.119Z,26.00
2022-07-29T08:35:23.492Z,26.10
2022-07-29T08:37:50.192Z,26.20
2022-07-29T08:40:17.011Z,26.60
2022-07-29T08:42:43.672Z,26.80
2022-07-29T08:45:10.476Z,27.00
2022-07-29T08:47:40.658Z,27.40
2022-07-29T08:50:11.334Z,27.40
2022-07-29T08:52:39.683Z,27.40
2022-07-29T08:55:08.428Z,27.20
2022-07-29T08:57:35.515Z,27.10
2022-07-29T09:00:11.858Z,26.90
2022-07-29T09:02:46.771Z,26.90
2022-07-29T09:05:14.146Z,26.70
2022-07-29T09:07:44.060Z,26.20
2022-07-29T09:10:11.017Z,26.30
2022-07-29T09:12:38.286Z,26.10
2022-07-29T09:15:05.522Z,26.10
2022-07-29T09:17:47.427Z,26.40
2022-07-29T09:20:19.197Z,26.40
2022-07-29T09:22:50.083Z,26.10
2022-07-29T09:25:33.722Z,26.50
2022-07-29T09:28:11.428Z,27.10
2022-07-29T09:31:02.809Z,27.20
2022-07-29T09:33:35.670Z,26.80
2022-07-29T09:36:09.546Z,27.20
2022-07-29T09:38:37.611Z,27.60
2022-07-29T09:41:06.883Z,27.50
2022-07-29T09:43:34.482Z,27.70
2022-07-29T09:46:14.634Z,27.80
2022-07-29T09:48:41.798Z,28.20
2022-07-29T09:51:24.112Z,28.20
2022-07-29T09:53:53.727Z,28.20
2022-07-29T09:56:20.412Z,28.40
2022-07-29T09:58:47.044Z,28.70
2022-07-29T10:01:13.702Z,28.50
2022-07-29T10:04:01.916Z,28.40
2022-07-29T10:06:28.467Z,28.90
2022-07-29T10:08:55.453Z,29.30
2022-07-29T10:11:22.144Z,29.60
2022-07-29T10:13:49.454Z,29.80
2022-07-29T10:16:17.055Z,29.70
2022-07-29T10:18:44.798Z,29.40
2022-07-29T10:21:34.488Z,29.70
2022-07-29T10:24:01.490Z,30.10
2022-07-29T10:26:30.089Z,30.40
2022-07-29T10:28:56.752Z,30.90
2022-07-29T10:31:31.062Z,31.30
2022-07-29T10:34:25.670Z,31.10
2022-07-29T10:37:04.590Z,30.90
2022-07-29T10:40:29.946Z,30.60
2022-07-29T10:43:01.984Z,30.80
2022-07-29T10:45:44.823Z,30.80
2022-07-29T10:48:17.967Z,30.50
2022-07-29T10:51:07.877Z,30.30
2022-07-29T10:53:56.591Z,29.80
2022-07-29T10:56:29.604Z,30.00
2022-07-29T10:59:21.725Z,30.00
2022-07-29T11:01:56.697Z,30.40
2022-07-29T11:04:45.253Z,30.80
2022-07-29T11:07:13.731Z,31.20
2022-07-29T11:09:49.262Z,30.10
2022-07-29T11:12:38.721Z,30.80
2022-07-29T11:15:13.979Z,31.20
2022-07-29T11:17:59.644Z,31.60
2022-07-29T11:20:45.847Z,31.20
2022-07-29T11:23:33.650Z,31.20
2022-07-29T11:26:10.903Z,32.50
2022-07-29T11:28:55.713Z,33.00
2022-07-29T11:31:55.862Z,33.10
2022-07-29T11:34:34.850Z,32.40
2022-07-29T11:37:15.389Z,32.50
2022-07-29T11:40:01.545Z,32.30
2022-07-29T11:42:34.198Z,32.60
2022-07-29T11:48:29.855Z,32.50
2022-07-29T11:50:52.061Z,32.70
2022-07-29T11:53:18.628Z,33.00
2022-07-29T11:55:51.346Z,33.00
2022-07-29T11:58:26.490Z,33.60
2022-07-29T12:03:43.626Z,34.30
2022-07-29T12:06:15.604Z,34.20
2022-07-29T12:07:03.858Z,33.20
2022-07-29T12:08:46.284Z,32.90
2022-07-29T12:11:20.832Z,33.00
2022-07-29T12:13:49.367Z,32.10
2022-07-29T12:16:25.777Z,31.60
2022-07-29T12:19:03.655Z,32.50
2022-07-29T12:21:59.447Z,33.80
2022-07-29T12:24:27.426Z,34.70
2022-07-29T12:26:56.587Z,34.90
2022-07-29T12:29:33.755Z,34.00
2022-07-29T12:32:02.070Z,32.60
2022-07-29T12:34:29.902Z,33.00
2022-07-29T12:36:56.749Z,33.10
2022-07-29T12:39:27.330Z,31.50
2022-07-29T12:41:54.345Z,32.20
2022-07-29T12:44:49.565Z,33.70
2022-07-29T12:47:17.185Z,34.40
2022-07-29T12:49:43.765Z,35.30
2022-07-29T12:52:34.300Z,36.20
2022-07-29T12:55:01.740Z,35.80
2022-07-29T12:57:29.170Z,35.50
2022-07-29T13:00:12.348Z,35.70
2022-07-29T13:02:40.107Z,35.40
2022-07-29T13:05:09.249Z,35.50
2022-07-29T13:07:54.324Z,35.50
2022-07-29T13:10:24.333Z,35.40
2022-07-29T13:13:14.702Z,34.10
2022-07-29T13:15:49.305Z,33.80
2022-07-29T13:19:28.537Z,33.60
2022-07-29T13:22:01.473Z,32.50
2022-07-29T13:24:55.540Z,33.10
2022-07-29T13:28:28.719Z,33.50
2022-07-29T13:30:55.965Z,33.70
2022-07-29T13:33:40.261Z,34.30
2022-07-29T13:36:47.493Z,34.70
2022-07-29T13:43:26.990Z,35.40
2022-07-29T13:45:58.358Z,34.00
2022-07-29T13:48:25.376Z,34.30
2022-07-29T13:50:52.889Z,34.40
2022-07-29T13:53:19.775Z,34.70
2022-07-29T13:55:58.471Z,35.20
2022-07-29T14:01:50.130Z,35.60
2022-07-29T14:04:16.646Z,35.50
2022-07-29T14:06:43.425Z,35.40
2022-07-29T14:09:10.445Z,34.00
2022-07-29T14:11:39.469Z,34.00
2022-07-29T14:14:06.463Z,32.80
2022-07-29T14:16:33.187Z,33.60
2022-07-29T14:18:59.837Z,34.00
2022-07-29T14:21:26.548Z,33.80
2022-07-29T14:23:53.797Z,34.70
2022-07-29T14:26:21.671Z,35.30
2022-07-29T14:28:51.034Z,35.30
2022-07-29T14:31:17.764Z,35.60
2022-07-29T14:33:44.348Z,35.10
2022-07-29T14:36:13.376Z,35.20
2022-07-29T14:38:41.377Z,35.50
2022-07-29T14:41:08.932Z,36.20
2022-07-29T14:43:36.029Z,36.60
2022-07-29T14:46:08.208Z,36.10
2022-07-29T14:48:35.978Z,36.20
2022-07-29T14:51:04.881Z,36.30
2022-07-29T14:53:31.980Z,36.00
2022-07-29T14:56:10.117Z,34.50
2022-07-29T14:58:51.758Z,33.60
2022-07-29T15:01:18.725Z,33.50
2022-07-29T15:03:45.430Z,33.00
2022-07-29T15:06:12.309Z,32.30
2022-07-29T15:08:38.944Z,31.50
2022-07-29T15:11:05.512Z,31.10
2022-07-29T15:13:32.021Z,30.80
2022-07-29T15:16:00.321Z,30.70
2022-07-29T15:18:27.164Z,30.50
2022-07-29T15:20:53.976Z,30.40
2022-07-29T15:23:20.703Z,30.30
2022-07-29T15:25:48.488Z,30.20
2022-07-29T15:28:15.328Z,30.00
2022-07-29T15:30:45.173Z,29.80
2022-07-29T15:33:11.968Z,29.90
2022-07-29T15:35:40.479Z,29.90
2022-07-29T15:38:15.851Z,29.80
2022-07-29T15:40:44.610Z,29.60
2022-07-29T15:43:11.716Z,29.30
2022-07-29T15:46:06.421Z,29.20
2022-07-29T15:48:33.601Z,29.30
2022-07-29T15:51:01.770Z,29.40
2022-07-29T15:53:28.331Z,29.20
2022-07-29T15:55:54.933Z,29.00
2022-07-29T15:58:21.585Z,28.80
2022-07-29T16:00:48.530Z,28.90
2022-07-29T16:03:16.203Z,28.90
2022-07-29T16:05:43.053Z,29.00
2022-07-29T16:08:09.582Z,29.00
2022-07-29T16:10:36.168Z,29.10
2022-07-29T16:13:02.701Z,29.10
2022-07-29T16:15:29.250Z,29.20
2022-07-29T16:17:55.771Z,29.40
2022-07-29T16:20:22.517Z,29.40
2022-07-29T16:22:49.252Z,29.30
2022-07-29T16:25:15.833Z,29.30
2022-07-29T16:27:42.464Z,29.10
2022-07-29T16:30:12.129Z,29.20
2022-07-29T16:32:39.757Z,29.60
2022-07-29T16:35:09.847Z,29.40
2022-07-29T16:37:37.186Z,29.50
2022-07-29T16:40:05.162Z,29.40
2022-07-29T16:42:45.995Z,29.10
2022-07-29T16:45:13.644Z,29.30
2022-07-29T16:47:40.544Z,29.40
2022-07-29T16:50:07.781Z,29.40
2022-07-29T16:52:34.421Z,29.30
2022-07-29T16:55:00.984Z,29.10
2022-07-29T16:57:27.860Z,28.80
2022-07-29T16:59:54.399Z,28.70
2022-07-29T17:02:21.050Z,28.70
2022-07-29T17:04:47.560Z,28.80
2022-07-29T17:07:14.206Z,29.00
2022-07-29T17:09:41.094Z,28.70
2022-07-29T17:12:07.994Z,28.70
2022-07-29T17:14:34.535Z,28.90
2022-07-29T17:17:02.685Z,28.90
2022-07-29T17:19:31.794Z,28.90
2022-07-29T17:22:06.784Z,29.00
2022-07-29T17:24:37.303Z,28.80
2022-07-29T17:27:05.212Z,28.90
2022-07-29T17:29:31.685Z,28.70
2022-07-29T17:31:59.537Z,28.70
2022-07-29T17:34:26.190Z,28.70
2022-07-29T17:36:52.939Z,28.60
2022-07-29T17:39:19.477Z,28.40
2022-07-29T17:41:46.827Z,28.40
2022-07-29T17:44:13.619Z,28.50
2022-07-29T17:46:40.685Z,28.40
2022-07-29T17:49:07.353Z,28.40
2022-07-29T17:51:33.935Z,28.20
2022-07-29T17:54:00.542Z,28.10
2022-07-29T17:56:27.127Z,28.20
2022-07-29T17:58:54.102Z,28.20
2022-07-29T18:01:20.977Z,28.00
2022-07-29T18:03:47.829Z,27.90
2022-07-29T18:06:14.362Z,27.90
2022-07-29T18:08:40.960Z,27.80
2022-07-29T18:11:07.675Z,27.90
2022-07-29T18:13:34.168Z,27.70
2022-07-29T18:16:01.062Z,27.70
2022-07-29T18:18:27.998Z,27.90
2022-07-29T18:20:54.612Z,27.70
2022-07-29T18:23:21.265Z,27.60
2022-07-29T18:25:47.911Z,27.50
2022-07-29T18:28:14.465Z,27.30
2022-07-29T18:30:41.837Z,27.40
2022-07-29T18:33:21.676Z,27.60
2022-07-29T18:35:50.700Z,27.70
2022-07-29T18:38:17.884Z,27.70
2022-07-29T18:40:45.646Z,27.30
2022-07-29T18:43:13.210Z,27.30
2022-07-29T18:45:40.339Z,27.50
2022-07-29T18:48:13.215Z,27.70
2022-07-29T18:50:41.085Z,27.50
2022-07-29T18:53:07.687Z,27.40
2022-07-29T18:55:34.216Z,27.30
2022-07-29T18:58:00.737Z,27.10
2022-07-29T19:00:27.486Z,26.90
2022-07-29T19:02:54.241Z,27.00
2022-07-29T19:05:21.828Z,27.10
2022-07-29T19:07:48.399Z,26.80
2022-07-29T19:10:14.987Z,26.70
2022-07-29T19:12:42.346Z,26.60
2022-07-29T19:15:10.353Z,26.80
2022-07-29T19:17:36.990Z,26.70
2022-07-29T19:20:04.250Z,26.70
2022-07-29T19:22:31.080Z,26.80
2022-07-29T19:24:57.679Z,26.70
2022-07-29T19:27:24.224Z,26.50
2022-07-29T19:29:50.748Z,26.50
2022-07-29T19:32:24.886Z,26.50
2022-07-29T19:35:11.003Z,26.40
2022-07-29T19:37:37.614Z,26.30
2022-07-29T19:40:05.956Z,26.30
2022-07-29T19:42:32.490Z,26.10
2022-07-29T19:44:59.015Z,26.10
2022-07-29T19:47:25.680Z,26.30
2022-07-29T19:49:52.256Z,26.20
2022-07-29T19:52:18.852Z,26.20
2022-07-29T19:54:45.417Z,25.80
2022-07-29T19:57:11.943Z,25.70
2022-07-29T19:59:38.777Z,25.80
2022-07-29T20:02:05.859Z,25.80
2022-07-29T20:04:32.457Z,25.60
2022-07-29T20:07:01.725Z,25.50
2022-07-29T20:09:28.810Z,25.50
2022-07-29T20:11:55.474Z,25.60
2022-07-29T20:14:22.389Z,25.50
2022-07-29T20:16:50.568Z,25.50
2022-07-29T20:19:17.157Z,25.90
2022-07-29T20:21:44.002Z,25.80
2022-07-29T20:24:10.655Z,25.80
2022-07-29T20:26:37.662Z,25.70
2022-07-29T20:29:07.142Z,25.30
2022-07-29T20:31:33.777Z,25.50
2022-07-29T20:34:00.729Z,25.70
2022-07-29T20:36:28.131Z,25.30
2022-07-29T20:38:55.320Z,25.40
2022-07-29T20:41:22.215Z,25.60
2022-07-29T20:43:49.806Z,25.20
2022-07-29T20:46:16.630Z,25.10
2022-07-29T20:48:43.387Z,25.10
2022-07-29T20:51:10.222Z,25.30
2022-07-29T20:53:38.402Z,25.30
2022-07-29T20:56:05.387Z,25.40
2022-07-29T20:58:33.900Z,25.30
2022-07-29T21:01:01.028Z,25.40
2022-07-29T21:03:27.583Z,25.50
2022-07-29T21:05:54.141Z,25.70
2022-07-29T21:08:20.805Z,25.50
2022-07-29T21:10:47.342Z,25.90
2022-07-29T21:13:14.340Z,26.00
2022-07-29T21:15:44.038Z,26.00
2022-07-29T21:18:26.674Z,26.00
2022-07-29T21:20:57.713Z,26.00
2022-07-29T21:23:25.135Z,26.00
2022-07-29T21:25:52.454Z,25.90
2022-07-29T21:28:51.840Z,25.70
2022-07-29T21:31:18.395Z,25.60
2022-07-29T21:33:46.271Z,25.50
2022-07-29T21:36:46.401Z,25.60
2022-07-29T21:39:06.674Z,25.60
2022-07-29T21:41:34.307Z,25.80
2022-07-29T21:44:01.292Z,25.90
2022-07-29T21:46:28.119Z,25.60
2022-07-29T21:48:54.746Z,25.90
2022-07-29T21:51:21.318Z,25.80
2022-07-29T21:53:47.824Z,25.90
2022-07-29T21:56:15.136Z,25.60
2022-07-29T21:58:43.308Z,25.50
2022-07-29T22:01:09.960Z,25.40
2022-07-29T22:03:36.477Z,25.70
2022-07-29T22:06:03.040Z,25.60
2022-07-29T22:08:29.653Z,25.40
2022-07-29T22:10:56.160Z,25.50
2022-07-29T22:13:22.697Z,25.50
2022-07-29T22:15:49.186Z,25.20
2022-07-29T22:18:19.491Z,24.90
2022-07-29T22:20:48.781Z,24.90
2022-07-29T22:23:15.351Z,25.10
2022-07-29T22:25:41.970Z,25.00
2022-07-29T22:28:08.572Z,25.10
2022-07-29T22:30:35.162Z,25.10
2022-07-29T22:33:01.804Z,25.10
2022-07-29T22:35:28.395Z,25.10
2022-07-29T22:37:55.038Z,24.90
2022-07-29T22:40:21.707Z,25.00
2022-07-29T22:42:48.279Z,25.10
2022-07-29T22:45:14.799Z,24.90
2022-07-29T22:47:46.685Z,25.00
2022-07-29T22:50:15.953Z,25.20
2022-07-29T22:52:42.471Z,25.10
2022-07-29T22:55:09.193Z,25.10
2022-07-29T22:57:35.745Z,25.20
2022-07-29T23:00:02.456Z,25.10
2022-07-29T23:02:29.230Z,25.10
2022-07-29T23:04:56.186Z,25.20
2022-07-29T23:07:23.047Z,25.10
2022-07-29T23:09:49.644Z,25.10
2022-07-29T23:12:16.478Z,25.10
2022-07-29T23:14:43.813Z,25.10
2022-07-29T23:17:10.440Z,25.10
2022-07-29T23:19:37.108Z,24.70
2022-07-29T23:22:03.691Z,25.00
2022-07-29T23:24:30.268Z,25.10
2022-07-29T23:26:56.837Z,24.80
2022-07-29T23:29:23.402Z,24.80
2022-07-29T23:31:49.942Z,25.10
2022-07-29T23:34:16.674Z,25.10
2022-07-29T23:36:43.221Z,24.80
2022-07-29T23:39:11.300Z,24.80
2022-07-29T23:41:37.861Z,24.70
2022-07-29T23:44:04.821Z,24.70
2022-07-29T23:46:31.413Z,24.90
2022-07-29T23:48:58.321Z,24.90
2022-07-29T23:51:25.004Z,24.90
2022-07-29T23:53:53.895Z,24.80
2022-07-29T23:56:21.547Z,24.90
2022-07-29T23:58:48.203Z,24.70
